sensor_id;sensor_type;location;lat;lon;timestamp;P1;durP1;ratioP1;P2;durP2;ratioP2
82387;SDS011;72027;47.420;9.310;2024-01-15T00:02:13;4.40;;;2.72;;
82387;SDS011;72027;47.420;9.310;2024-01-15T00:04:41;9.02;;;3.38;;
82387;SDS011;72027;47.420;9.310;2024-01-15T00:07:09;5.32;;;3.40;;
82387;SDS011;72027;47.420;9.310;2024-01-15T00:09:37;3.20;;;2.53;;
82387;SDS011;72027;47.420;9.310;2024-01-15T00:12:05;4.63;;;2.78;;
82387;SDS011;72027;47.420;9.310;2024-01-15T00:14:34;3.67;;;2.58;;
82387;SDS011;72027;47.420;9.310;2024-01-15T00:17:02;8.45;;;3.03;;
82387;SDS011;72027;47.420;9.310;2024-01-15T00:19:30;9.10;;;2.80;;
82387;SDS011;72027;47.420;9.310;2024-01-15T00:21:59;5.60;;;3.28;;
82387;SDS011;72027;47.420;9.310;2024-01-15T00:24:27;5.10;;;3.33;;
82387;SDS011;72027;47.420;9.310;2024-01-15T00:26:55;4.97;;;3.03;;
82387;SDS011;72027;47.420;9.310;2024-01-15T00:29:22;4.60;;;2.88;;
82387;SDS011;72027;47.420;9.310;2024-01-15T00:31:52;6.35;;;3.35;;
82387;SDS011;72027;47.420;9.310;2024-01-15T00:34:19;5.20;;;3.03;;
82387;SDS011;72027;47.420;9.310;2024-01-15T00:36:47;4.45;;;2.38;;
82387;SDS011;72027;47.420;9.310;2024-01-15T00:39:15;4.57;;;3.00;;
82387;SDS011;72027;47.420;9.310;2024-01-15T00:41:44;4.90;;;3.13;;
82387;SDS011;72027;47.420;9.310;2024-01-15T00:44:11;5.60;;;2.75;;
82387;SDS011;72027;47.420;9.310;2024-01-15T00:46:43;6.10;;;2.95;;
82387;SDS011;72027;47.420;9.310;2024-01-15T00:49:13;6.32;;;3.33;;
82387;SDS011;72027;47.420;9.310;2024-01-15T00:51:41;7.63;;;3.05;;
82387;SDS011;72027;47.420;9.310;2024-01-15T00:54:09;7.70;;;2.35;;
82387;SDS011;72027;47.420;9.310;2024-01-15T00:56:37;5.28;;;2.53;;
82387;SDS011;72027;47.420;9.310;2024-01-15T00:59:05;4.82;;;2.20;;
82387;SDS011;72027;47.420;9.310;2024-01-15T01:01:34;5.57;;;2.50;;
82387;SDS011;72027;47.420;9.310;2024-01-15T01:04:01;5.85;;;2.72;;
82387;SDS011;72027;47.420;9.310;2024-01-15T01:06:31;7.97;;;2.97;;
82387;SDS011;72027;47.420;9.310;2024-01-15T01:08:59;6.20;;;2.30;;
82387;SDS011;72027;47.420;9.310;2024-01-15T01:11:27;6.72;;;2.72;;
82387;SDS011;72027;47.420;9.310;2024-01-15T01:13:55;5.20;;;2.63;;
82387;SDS011;72027;47.420;9.310;2024-01-15T01:16:23;3.60;;;2.20;;
82387;SDS011;72027;47.420;9.310;2024-01-15T01:18:51;4.15;;;1.85;;
82387;SDS011;72027;47.420;9.310;2024-01-15T01:21:19;4.10;;;1.95;;
82387;SDS011;72027;47.420;9.310;2024-01-15T01:23:48;2.58;;;1.58;;
82387;SDS011;72027;47.420;9.310;2024-01-15T01:26:16;4.90;;;2.78;;
82387;SDS011;72027;47.420;9.310;2024-01-15T01:28:44;3.42;;;2.00;;
82387;SDS011;72027;47.420;9.310;2024-01-15T01:31:12;6.45;;;2.38;;
82387;SDS011;72027;47.420;9.310;2024-01-15T01:33:40;5.68;;;2.30;;
82387;SDS011;72027;47.420;9.310;2024-01-15T01:36:08;5.88;;;2.97;;
82387;SDS011;72027;47.420;9.310;2024-01-15T01:38:36;3.95;;;2.20;;
82387;SDS011;72027;47.420;9.310;2024-01-15T01:41:06;3.20;;;2.15;;
82387;SDS011;72027;47.420;9.310;2024-01-15T01:43:34;4.50;;;2.00;;
82387;SDS011;72027;47.420;9.310;2024-01-15T01:46:02;4.55;;;2.53;;
82387;SDS011;72027;47.420;9.310;2024-01-15T01:48:30;5.15;;;2.80;;
82387;SDS011;72027;47.420;9.310;2024-01-15T01:50:59;5.25;;;3.08;;
82387;SDS011;72027;47.420;9.310;2024-01-15T01:53:30;6.85;;;3.17;;
82387;SDS011;72027;47.420;9.310;2024-01-15T01:56:01;3.72;;;2.38;;
82387;SDS011;72027;47.420;9.310;2024-01-15T01:58:31;7.03;;;2.58;;
82387;SDS011;72027;47.420;9.310;2024-01-15T02:01:00;5.63;;;2.83;;
82387;SDS011;72027;47.420;9.310;2024-01-15T02:03:29;6.80;;;3.65;;
82387;SDS011;72027;47.420;9.310;2024-01-15T02:05:58;9.32;;;4.88;;
82387;SDS011;72027;47.420;9.310;2024-01-15T02:08:27;6.35;;;3.30;;
82387;SDS011;72027;47.420;9.310;2024-01-15T02:10:54;4.97;;;3.65;;
82387;SDS011;72027;47.420;9.310;2024-01-15T02:13:21;8.38;;;5.15;;
82387;SDS011;72027;47.420;9.310;2024-01-15T02:15:51;8.80;;;4.80;;
82387;SDS011;72027;47.420;9.310;2024-01-15T02:18:19;7.88;;;4.57;;
82387;SDS011;72027;47.420;9.310;2024-01-15T02:20:47;6.97;;;3.92;;
82387;SDS011;72027;47.420;9.310;2024-01-15T02:23:16;5.75;;;3.78;;
82387;SDS011;72027;47.420;9.310;2024-01-15T02:25:44;9.68;;;5.55;;
82387;SDS011;72027;47.420;9.310;2024-01-15T02:28:13;9.15;;;5.88;;
82387;SDS011;72027;47.420;9.310;2024-01-15T02:30:43;13.45;;;6.15;;
82387;SDS011;72027;47.420;9.310;2024-01-15T02:33:12;15.07;;;7.30;;
82387;SDS011;72027;47.420;9.310;2024-01-15T02:35:40;21.77;;;10.02;;
82387;SDS011;72027;47.420;9.310;2024-01-15T02:38:08;25.13;;;10.98;;
82387;SDS011;72027;47.420;9.310;2024-01-15T02:40:37;21.33;;;10.23;;
82387;SDS011;72027;47.420;9.310;2024-01-15T02:43:05;20.25;;;10.13;;
82387;SDS011;72027;47.420;9.310;2024-01-15T02:45:33;25.85;;;10.20;;
82387;SDS011;72027;47.420;9.310;2024-01-15T02:48:01;27.35;;;13.05;;
82387;SDS011;72027;47.420;9.310;2024-01-15T02:50:29;22.60;;;12.40;;
82387;SDS011;72027;47.420;9.310;2024-01-15T02:52:57;27.75;;;13.85;;
82387;SDS011;72027;47.420;9.310;2024-01-15T02:55:25;36.05;;;15.73;;
82387;SDS011;72027;47.420;9.310;2024-01-15T02:57:57;40.28;;;17.83;;
82387;SDS011;72027;47.420;9.310;2024-01-15T03:00:25;36.50;;;16.90;;
82387;SDS011;72027;47.420;9.310;2024-01-15T03:02:53;46.75;;;17.52;;
82387;SDS011;72027;47.420;9.310;2024-01-15T03:05:22;41.08;;;18.65;;
82387;SDS011;72027;47.420;9.310;2024-01-15T03:07:49;49.92;;;21.02;;
82387;SDS011;72027;47.420;9.310;2024-01-15T03:10:17;42.00;;;19.48;;
82387;SDS011;72027;47.420;9.310;2024-01-15T03:12:45;46.58;;;18.52;;
82387;SDS011;72027;47.420;9.310;2024-01-15T03:15:14;39.47;;;18.05;;
82387;SDS011;72027;47.420;9.310;2024-01-15T03:17:42;42.70;;;19.52;;
82387;SDS011;72027;47.420;9.310;2024-01-15T03:20:10;40.53;;;17.90;;
82387;SDS011;72027;47.420;9.310;2024-01-15T03:22:38;44.72;;;19.10;;
82387;SDS011;72027;47.420;9.310;2024-01-15T03:25:06;46.70;;;17.30;;
82387;SDS011;72027;47.420;9.310;2024-01-15T03:27:34;36.92;;;17.38;;
82387;SDS011;72027;47.420;9.310;2024-01-15T03:30:02;37.65;;;17.80;;
82387;SDS011;72027;47.420;9.310;2024-01-15T03:32:32;39.15;;;19.33;;
82387;SDS011;72027;47.420;9.310;2024-01-15T03:35:00;36.67;;;16.85;;
82387;SDS011;72027;47.420;9.310;2024-01-15T03:37:28;42.45;;;16.75;;
82387;SDS011;72027;47.420;9.310;2024-01-15T03:39:55;34.40;;;14.20;;
82387;SDS011;72027;47.420;9.310;2024-01-15T03:42:23;35.03;;;16.38;;
82387;SDS011;72027;47.420;9.310;2024-01-15T03:44:51;38.47;;;16.42;;
82387;SDS011;72027;47.420;9.310;2024-01-15T03:47:19;36.03;;;15.77;;
82387;SDS011;72027;47.420;9.310;2024-01-15T03:49:48;35.28;;;15.77;;
82387;SDS011;72027;47.420;9.310;2024-01-15T03:52:16;35.28;;;15.23;;
82387;SDS011;72027;47.420;9.310;2024-01-15T03:54:44;37.85;;;14.98;;
82387;SDS011;72027;47.420;9.310;2024-01-15T03:57:11;38.95;;;16.65;;
82387;SDS011;72027;47.420;9.310;2024-01-15T03:59:40;36.33;;;16.05;;
82387;SDS011;72027;47.420;9.310;2024-01-15T04:02:07;38.17;;;15.52;;
82387;SDS011;72027;47.420;9.310;2024-01-15T04:04:35;36.42;;;15.68;;
82387;SDS011;72027;47.420;9.310;2024-01-15T04:07:04;49.53;;;16.73;;
82387;SDS011;72027;47.420;9.310;2024-01-15T04:09:32;36.53;;;16.60;;
82387;SDS011;72027;47.420;9.310;2024-01-15T04:12:00;36.08;;;15.10;;
82387;SDS011;72027;47.420;9.310;2024-01-15T04:14:28;46.90;;;17.95;;
82387;SDS011;72027;47.420;9.310;2024-01-15T04:16:56;40.08;;;15.90;;
82387;SDS011;72027;47.420;9.310;2024-01-15T04:19:23;40.13;;;16.95;;
82387;SDS011;72027;47.420;9.310;2024-01-15T04:21:51;44.58;;;18.48;;
82387;SDS011;72027;47.420;9.310;2024-01-15T04:24:20;45.63;;;18.58;;
82387;SDS011;72027;47.420;9.310;2024-01-15T04:26:48;45.40;;;20.58;;
82387;SDS011;72027;47.420;9.310;2024-01-15T04:29:16;47.65;;;19.20;;
82387;SDS011;72027;47.420;9.310;2024-01-15T04:31:44;43.72;;;18.65;;
82387;SDS011;72027;47.420;9.310;2024-01-15T04:34:11;37.28;;;15.57;;
82387;SDS011;72027;47.420;9.310;2024-01-15T04:36:39;38.42;;;15.73;;
82387;SDS011;72027;47.420;9.310;2024-01-15T04:39:08;40.80;;;14.00;;
82387;SDS011;72027;47.420;9.310;2024-01-15T04:41:37;35.00;;;14.10;;
82387;SDS011;72027;47.420;9.310;2024-01-15T04:44:04;34.55;;;14.57;;
82387;SDS011;72027;47.420;9.310;2024-01-15T04:46:32;31.92;;;13.15;;
82387;SDS011;72027;47.420;9.310;2024-01-15T04:49:00;27.77;;;11.13;;
82387;SDS011;72027;47.420;9.310;2024-01-15T04:51:27;34.92;;;12.57;;
82387;SDS011;72027;47.420;9.310;2024-01-15T04:53:55;29.35;;;11.95;;
82387;SDS011;72027;47.420;9.310;2024-01-15T04:56:22;28.38;;;11.23;;
82387;SDS011;72027;47.420;9.310;2024-01-15T04:58:51;30.67;;;10.90;;
82387;SDS011;72027;47.420;9.310;2024-01-15T05:01:19;26.92;;;11.63;;
82387;SDS011;72027;47.420;9.310;2024-01-15T05:03:47;24.30;;;9.57;;
82387;SDS011;72027;47.420;9.310;2024-01-15T05:06:15;25.02;;;9.93;;
82387;SDS011;72027;47.420;9.310;2024-01-15T05:08:43;27.15;;;11.55;;
82387;SDS011;72027;47.420;9.310;2024-01-15T05:11:11;22.50;;;9.60;;
82387;SDS011;72027;47.420;9.310;2024-01-15T05:13:39;25.25;;;10.82;;
82387;SDS011;72027;47.420;9.310;2024-01-15T05:16:08;30.23;;;11.43;;
82387;SDS011;72027;47.420;9.310;2024-01-15T05:18:36;35.63;;;11.73;;
82387;SDS011;72027;47.420;9.310;2024-01-15T05:21:04;34.90;;;11.68;;
82387;SDS011;72027;47.420;9.310;2024-01-15T05:23:32;31.10;;;11.15;;
82387;SDS011;72027;47.420;9.310;2024-01-15T05:26:00;28.63;;;11.02;;
82387;SDS011;72027;47.420;9.310;2024-01-15T05:28:27;29.23;;;11.68;;
82387;SDS011;72027;47.420;9.310;2024-01-15T05:32:47;24.10;;;9.63;;
82387;SDS011;72027;47.420;9.310;2024-01-15T05:35:15;22.88;;;9.63;;
82387;SDS011;72027;47.420;9.310;2024-01-15T05:37:43;27.40;;;10.43;;
82387;SDS011;72027;47.420;9.310;2024-01-15T05:40:12;28.13;;;10.25;;
82387;SDS011;72027;47.420;9.310;2024-01-15T05:42:41;22.42;;;8.70;;
82387;SDS011;72027;47.420;9.310;2024-01-15T05:45:09;24.35;;;9.57;;
82387;SDS011;72027;47.420;9.310;2024-01-15T05:47:37;23.70;;;9.77;;
82387;SDS011;72027;47.420;9.310;2024-01-15T05:50:06;25.10;;;10.10;;
82387;SDS011;72027;47.420;9.310;2024-01-15T05:52:35;17.98;;;8.68;;
82387;SDS011;72027;47.420;9.310;2024-01-15T05:55:04;21.77;;;8.88;;
82387;SDS011;72027;47.420;9.310;2024-01-15T05:57:32;20.30;;;8.65;;
82387;SDS011;72027;47.420;9.310;2024-01-15T06:00:00;19.70;;;8.30;;
82387;SDS011;72027;47.420;9.310;2024-01-15T06:02:31;23.63;;;9.07;;
82387;SDS011;72027;47.420;9.310;2024-01-15T06:04:59;23.10;;;8.63;;
82387;SDS011;72027;47.420;9.310;2024-01-15T06:07:30;22.45;;;7.90;;
82387;SDS011;72027;47.420;9.310;2024-01-15T06:09:58;18.63;;;8.15;;
82387;SDS011;72027;47.420;9.310;2024-01-15T06:12:27;22.92;;;10.43;;
82387;SDS011;72027;47.420;9.310;2024-01-15T06:14:55;20.67;;;8.10;;
82387;SDS011;72027;47.420;9.310;2024-01-15T06:17:23;24.55;;;9.65;;
82387;SDS011;72027;47.420;9.310;2024-01-15T06:19:51;24.15;;;8.88;;
82387;SDS011;72027;47.420;9.310;2024-01-15T06:22:19;23.35;;;9.10;;
82387;SDS011;72027;47.420;9.310;2024-01-15T06:24:48;25.88;;;8.55;;
82387;SDS011;72027;47.420;9.310;2024-01-15T06:27:16;25.17;;;8.60;;
82387;SDS011;72027;47.420;9.310;2024-01-15T06:29:44;24.08;;;8.80;;
82387;SDS011;72027;47.420;9.310;2024-01-15T06:32:15;21.40;;;8.45;;
82387;SDS011;72027;47.420;9.310;2024-01-15T06:34:43;22.50;;;10.20;;
82387;SDS011;72027;47.420;9.310;2024-01-15T06:37:11;22.52;;;8.90;;
82387;SDS011;72027;47.420;9.310;2024-01-15T06:39:39;17.70;;;7.97;;
82387;SDS011;72027;47.420;9.310;2024-01-15T06:42:08;25.30;;;8.75;;
82387;SDS011;72027;47.420;9.310;2024-01-15T06:44:36;19.30;;;8.52;;
82387;SDS011;72027;47.420;9.310;2024-01-15T06:47:05;18.40;;;7.53;;
82387;SDS011;72027;47.420;9.310;2024-01-15T06:49:32;18.20;;;6.90;;
82387;SDS011;72027;47.420;9.310;2024-01-15T06:52:00;15.00;;;7.32;;
82387;SDS011;72027;47.420;9.310;2024-01-15T06:54:28;17.92;;;8.40;;
82387;SDS011;72027;47.420;9.310;2024-01-15T06:56:56;15.43;;;7.40;;
82387;SDS011;72027;47.420;9.310;2024-01-15T06:59:25;15.57;;;7.88;;
82387;SDS011;72027;47.420;9.310;2024-01-15T07:01:53;16.50;;;7.35;;
82387;SDS011;72027;47.420;9.310;2024-01-15T07:04:21;17.63;;;7.53;;
82387;SDS011;72027;47.420;9.310;2024-01-15T07:06:49;18.80;;;8.35;;
82387;SDS011;72027;47.420;9.310;2024-01-15T07:09:17;17.95;;;7.90;;
82387;SDS011;72027;47.420;9.310;2024-01-15T07:12:22;67.80;;;21.08;;
82387;SDS011;72027;47.420;9.310;2024-01-15T07:14:50;59.40;;;23.70;;
82387;SDS011;72027;47.420;9.310;2024-01-15T07:17:18;17.30;;;6.53;;
82387;SDS011;72027;47.420;9.310;2024-01-15T07:19:46;29.88;;;10.38;;
82387;SDS011;72027;47.420;9.310;2024-01-15T07:22:14;170.60;;;31.73;;
82387;SDS011;72027;47.420;9.310;2024-01-15T07:27:02;277.15;;;95.82;;
82387;SDS011;72027;47.420;9.310;2024-01-15T07:29:30;141.73;;;37.30;;
82387;SDS011;72027;47.420;9.310;2024-01-15T07:34:25;21.58;;;7.95;;
82387;SDS011;72027;47.420;9.310;2024-01-15T07:36:53;21.63;;;8.25;;
82387;SDS011;72027;47.420;9.310;2024-01-15T07:39:21;32.17;;;11.25;;
82387;SDS011;72027;47.420;9.310;2024-01-15T07:44:08;20.50;;;9.50;;
82387;SDS011;72027;47.420;9.310;2024-01-15T07:46:36;19.15;;;9.18;;
82387;SDS011;72027;47.420;9.310;2024-01-15T07:49:05;20.83;;;9.85;;
82387;SDS011;72027;47.420;9.310;2024-01-15T07:51:33;22.90;;;9.52;;
82387;SDS011;72027;47.420;9.310;2024-01-15T07:54:01;20.85;;;9.80;;
82387;SDS011;72027;47.420;9.310;2024-01-15T07:56:29;21.75;;;8.98;;
82387;SDS011;72027;47.420;9.310;2024-01-15T07:58:57;24.73;;;9.45;;
82387;SDS011;72027;47.420;9.310;2024-01-15T08:01:26;21.73;;;9.80;;
82387;SDS011;72027;47.420;9.310;2024-01-15T08:03:54;25.92;;;9.90;;
82387;SDS011;72027;47.420;9.310;2024-01-15T08:06:22;24.23;;;8.77;;
82387;SDS011;72027;47.420;9.310;2024-01-15T08:08:49;31.33;;;11.02;;
82387;SDS011;72027;47.420;9.310;2024-01-15T08:11:17;28.40;;;9.45;;
82387;SDS011;72027;47.420;9.310;2024-01-15T08:13:45;20.83;;;10.15;;
82387;SDS011;72027;47.420;9.310;2024-01-15T08:16:13;27.95;;;9.80;;
82387;SDS011;72027;47.420;9.310;2024-01-15T08:18:42;21.70;;;9.63;;
82387;SDS011;72027;47.420;9.310;2024-01-15T08:21:11;34.28;;;13.00;;
82387;SDS011;72027;47.420;9.310;2024-01-15T08:23:39;31.20;;;12.43;;
82387;SDS011;72027;47.420;9.310;2024-01-15T08:26:08;28.50;;;9.57;;
82387;SDS011;72027;47.420;9.310;2024-01-15T08:28:36;24.00;;;10.00;;
82387;SDS011;72027;47.420;9.310;2024-01-15T08:31:05;22.65;;;9.07;;
82387;SDS011;72027;47.420;9.310;2024-01-15T08:33:33;19.73;;;8.55;;
82387;SDS011;72027;47.420;9.310;2024-01-15T08:36:02;23.63;;;9.35;;
82387;SDS011;72027;47.420;9.310;2024-01-15T08:38:30;19.88;;;8.80;;
82387;SDS011;72027;47.420;9.310;2024-01-15T08:40:58;20.58;;;9.02;;
82387;SDS011;72027;47.420;9.310;2024-01-15T08:43:26;19.52;;;8.57;;
82387;SDS011;72027;47.420;9.310;2024-01-15T08:45:54;23.48;;;9.85;;
82387;SDS011;72027;47.420;9.310;2024-01-15T08:48:48;22.33;;;9.43;;
82387;SDS011;72027;47.420;9.310;2024-01-15T08:51:16;20.80;;;9.32;;
82387;SDS011;72027;47.420;9.310;2024-01-15T08:53:44;22.88;;;9.45;;
82387;SDS011;72027;47.420;9.310;2024-01-15T08:56:12;21.27;;;9.10;;
82387;SDS011;72027;47.420;9.310;2024-01-15T08:58:40;24.80;;;8.35;;
82387;SDS011;72027;47.420;9.310;2024-01-15T09:01:08;21.17;;;8.52;;
82387;SDS011;72027;47.420;9.310;2024-01-15T18:18:23;12.77;;;7.65;;
82387;SDS011;72027;47.420;9.310;2024-01-15T18:20:52;16.35;;;7.72;;
82387;SDS011;72027;47.420;9.310;2024-01-15T18:23:19;13.90;;;7.07;;
82387;SDS011;72027;47.420;9.310;2024-01-15T18:25:47;13.45;;;7.13;;
82387;SDS011;72027;47.420;9.310;2024-01-15T18:28:15;18.85;;;7.75;;
82387;SDS011;72027;47.420;9.310;2024-01-15T18:30:43;14.85;;;6.35;;
82387;SDS011;72027;47.420;9.310;2024-01-15T18:33:11;14.63;;;6.03;;
82387;SDS011;72027;47.420;9.310;2024-01-15T18:35:40;17.13;;;6.43;;
82387;SDS011;72027;47.420;9.310;2024-01-15T18:38:08;15.68;;;6.70;;
82387;SDS011;72027;47.420;9.310;2024-01-15T18:40:36;12.00;;;6.80;;
82387;SDS011;72027;47.420;9.310;2024-01-15T18:43:04;14.35;;;7.05;;
82387;SDS011;72027;47.420;9.310;2024-01-15T18:45:32;14.68;;;7.03;;
82387;SDS011;72027;47.420;9.310;2024-01-15T18:48:01;13.93;;;6.43;;
82387;SDS011;72027;47.420;9.310;2024-01-15T18:50:29;12.65;;;6.43;;
82387;SDS011;72027;47.420;9.310;2024-01-15T18:52:58;13.13;;;6.85;;
82387;SDS011;72027;47.420;9.310;2024-01-15T18:55:26;15.10;;;6.93;;
82387;SDS011;72027;47.420;9.310;2024-01-15T18:57:54;18.17;;;7.60;;
82387;SDS011;72027;47.420;9.310;2024-01-15T19:00:25;16.10;;;7.72;;
82387;SDS011;72027;47.420;9.310;2024-01-15T19:02:52;16.83;;;7.93;;
82387;SDS011;72027;47.420;9.310;2024-01-15T19:05:24;12.90;;;6.35;;
82387;SDS011;72027;47.420;9.310;2024-01-15T19:07:52;14.25;;;7.45;;
82387;SDS011;72027;47.420;9.310;2024-01-15T19:10:22;15.10;;;7.35;;
82387;SDS011;72027;47.420;9.310;2024-01-15T19:12:50;18.58;;;7.00;;
82387;SDS011;72027;47.420;9.310;2024-01-15T19:15:17;17.85;;;8.00;;
82387;SDS011;72027;47.420;9.310;2024-01-15T19:17:46;20.60;;;9.18;;
82387;SDS011;72027;47.420;9.310;2024-01-15T19:20:15;20.98;;;9.02;;
82387;SDS011;72027;47.420;9.310;2024-01-15T19:22:43;16.17;;;7.88;;
82387;SDS011;72027;47.420;9.310;2024-01-15T19:25:11;44.05;;;17.33;;
82387;SDS011;72027;47.420;9.310;2024-01-15T19:27:41;15.38;;;7.38;;
82387;SDS011;72027;47.420;9.310;2024-01-15T19:30:11;17.27;;;7.72;;
82387;SDS011;72027;47.420;9.310;2024-01-15T19:32:40;14.13;;;7.82;;
82387;SDS011;72027;47.420;9.310;2024-01-15T19:35:09;15.25;;;7.57;;
82387;SDS011;72027;47.420;9.310;2024-01-15T19:37:37;15.05;;;7.75;;
82387;SDS011;72027;47.420;9.310;2024-01-15T19:40:05;20.13;;;8.55;;
82387;SDS011;72027;47.420;9.310;2024-01-15T19:42:34;16.13;;;7.72;;
82387;SDS011;72027;47.420;9.310;2024-01-15T19:45:03;15.25;;;7.60;;
82387;SDS011;72027;47.420;9.310;2024-01-15T19:47:32;17.35;;;7.20;;
82387;SDS011;72027;47.420;9.310;2024-01-15T19:50:00;17.35;;;7.32;;
82387;SDS011;72027;47.420;9.310;2024-01-15T19:52:28;19.15;;;7.93;;
82387;SDS011;72027;47.420;9.310;2024-01-15T19:54:56;15.48;;;6.63;;
82387;SDS011;72027;47.420;9.310;2024-01-15T19:57:24;13.23;;;6.78;;
82387;SDS011;72027;47.420;9.310;2024-01-15T19:59:52;18.33;;;7.00;;
82387;SDS011;72027;47.420;9.310;2024-01-15T20:02:22;18.48;;;7.53;;
82387;SDS011;72027;47.420;9.310;2024-01-15T20:04:50;20.40;;;7.78;;
82387;SDS011;72027;47.420;9.310;2024-01-15T20:07:18;16.23;;;6.80;;
82387;SDS011;72027;47.420;9.310;2024-01-15T20:09:46;14.23;;;7.28;;
82387;SDS011;72027;47.420;9.310;2024-01-15T20:12:14;15.25;;;6.35;;
82387;SDS011;72027;47.420;9.310;2024-01-15T20:14:42;19.33;;;8.18;;
82387;SDS011;72027;47.420;9.310;2024-01-15T20:17:09;12.07;;;6.50;;
82387;SDS011;72027;47.420;9.310;2024-01-15T20:19:40;12.68;;;6.40;;
82387;SDS011;72027;47.420;9.310;2024-01-15T20:22:08;13.75;;;5.97;;
82387;SDS011;72027;47.420;9.310;2024-01-15T20:24:36;13.95;;;6.38;;
82387;SDS011;72027;47.420;9.310;2024-01-15T20:27:05;14.20;;;6.20;;
82387;SDS011;72027;47.420;9.310;2024-01-15T20:29:33;15.38;;;7.57;;
82387;SDS011;72027;47.420;9.310;2024-01-15T20:32:00;12.38;;;6.78;;
82387;SDS011;72027;47.420;9.310;2024-01-15T20:34:28;14.77;;;7.18;;
82387;SDS011;72027;47.420;9.310;2024-01-15T20:36:58;15.07;;;7.03;;
82387;SDS011;72027;47.420;9.310;2024-01-15T20:39:25;13.38;;;7.13;;
82387;SDS011;72027;47.420;9.310;2024-01-15T20:41:53;14.95;;;6.93;;
82387;SDS011;72027;47.420;9.310;2024-01-15T20:44:21;14.48;;;6.82;;
82387;SDS011;72027;47.420;9.310;2024-01-15T20:46:50;15.15;;;6.55;;
82387;SDS011;72027;47.420;9.310;2024-01-15T20:49:18;16.42;;;7.43;;
82387;SDS011;72027;47.420;9.310;2024-01-15T20:51:46;18.05;;;6.75;;
82387;SDS011;72027;47.420;9.310;2024-01-15T20:54:15;16.98;;;7.22;;
82387;SDS011;72027;47.420;9.310;2024-01-15T20:56:43;17.88;;;6.90;;
82387;SDS011;72027;47.420;9.310;2024-01-15T20:59:11;19.98;;;7.28;;
82387;SDS011;72027;47.420;9.310;2024-01-15T21:01:39;16.45;;;6.75;;
82387;SDS011;72027;47.420;9.310;2024-01-15T21:04:06;15.23;;;7.00;;
82387;SDS011;72027;47.420;9.310;2024-01-15T21:06:36;16.70;;;7.10;;
82387;SDS011;72027;47.420;9.310;2024-01-15T21:09:04;14.77;;;7.05;;
82387;SDS011;72027;47.420;9.310;2024-01-15T21:11:34;15.70;;;7.25;;
82387;SDS011;72027;47.420;9.310;2024-01-15T21:14:02;18.65;;;8.05;;
82387;SDS011;72027;47.420;9.310;2024-01-15T21:16:30;16.08;;;6.95;;
82387;SDS011;72027;47.420;9.310;2024-01-15T21:18:57;14.60;;;7.07;;
82387;SDS011;72027;47.420;9.310;2024-01-15T21:21:27;17.90;;;7.00;;
82387;SDS011;72027;47.420;9.310;2024-01-15T21:23:55;14.93;;;7.03;;
82387;SDS011;72027;47.420;9.310;2024-01-15T21:26:23;16.65;;;7.70;;
82387;SDS011;72027;47.420;9.310;2024-01-15T21:28:52;17.98;;;8.02;;
82387;SDS011;72027;47.420;9.310;2024-01-15T21:31:20;15.43;;;7.80;;
82387;SDS011;72027;47.420;9.310;2024-01-15T21:33:48;18.83;;;8.77;;
82387;SDS011;72027;47.420;9.310;2024-01-15T21:36:15;18.08;;;9.00;;
82387;SDS011;72027;47.420;9.310;2024-01-15T21:38:43;18.20;;;7.85;;
82387;SDS011;72027;47.420;9.310;2024-01-15T21:41:11;21.27;;;8.15;;
82387;SDS011;72027;47.420;9.310;2024-01-15T21:43:39;19.63;;;8.27;;
82387;SDS011;72027;47.420;9.310;2024-01-15T21:46:08;16.55;;;7.75;;
82387;SDS011;72027;47.420;9.310;2024-01-15T21:48:36;18.45;;;8.70;;
82387;SDS011;72027;47.420;9.310;2024-01-15T21:51:06;21.65;;;8.50;;
82387;SDS011;72027;47.420;9.310;2024-01-15T21:53:34;19.02;;;9.10;;
82387;SDS011;72027;47.420;9.310;2024-01-15T21:56:02;20.02;;;9.18;;
82387;SDS011;72027;47.420;9.310;2024-01-15T21:58:31;16.60;;;8.15;;
82387;SDS011;72027;47.420;9.310;2024-01-15T22:00:59;17.95;;;8.20;;
82387;SDS011;72027;47.420;9.310;2024-01-15T22:03:28;18.55;;;7.50;;
82387;SDS011;72027;47.420;9.310;2024-01-15T22:05:56;17.80;;;7.70;;
82387;SDS011;72027;47.420;9.310;2024-01-15T22:08:24;18.40;;;8.88;;
82387;SDS011;72027;47.420;9.310;2024-01-15T22:10:51;19.30;;;7.53;;
82387;SDS011;72027;47.420;9.310;2024-01-15T22:13:19;20.02;;;8.27;;
82387;SDS011;72027;47.420;9.310;2024-01-15T22:15:47;21.42;;;8.57;;
82387;SDS011;72027;47.420;9.310;2024-01-15T22:18:15;21.27;;;8.35;;
82387;SDS011;72027;47.420;9.310;2024-01-15T22:20:44;16.90;;;7.70;;
82387;SDS011;72027;47.420;9.310;2024-01-15T22:23:12;15.43;;;7.20;;
82387;SDS011;72027;47.420;9.310;2024-01-15T22:25:39;22.63;;;8.50;;
82387;SDS011;72027;47.420;9.310;2024-01-15T22:28:07;22.70;;;9.20;;
82387;SDS011;72027;47.420;9.310;2024-01-15T22:30:35;20.55;;;7.97;;
82387;SDS011;72027;47.420;9.310;2024-01-15T22:33:04;19.80;;;9.00;;
82387;SDS011;72027;47.420;9.310;2024-01-15T22:35:32;18.25;;;7.40;;
82387;SDS011;72027;47.420;9.310;2024-01-15T22:38:01;21.60;;;8.00;;
82387;SDS011;72027;47.420;9.310;2024-01-15T22:40:29;17.85;;;8.75;;
82387;SDS011;72027;47.420;9.310;2024-01-15T22:42:58;17.27;;;7.00;;
82387;SDS011;72027;47.420;9.310;2024-01-15T22:45:25;21.58;;;8.00;;
82387;SDS011;72027;47.420;9.310;2024-01-15T22:47:53;16.58;;;8.20;;
82387;SDS011;72027;47.420;9.310;2024-01-15T22:50:21;17.75;;;8.05;;
82387;SDS011;72027;47.420;9.310;2024-01-15T22:52:49;16.15;;;7.10;;
82387;SDS011;72027;47.420;9.310;2024-01-15T22:55:18;16.90;;;6.45;;
82387;SDS011;72027;47.420;9.310;2024-01-15T22:57:46;19.05;;;8.70;;
82387;SDS011;72027;47.420;9.310;2024-01-15T23:00:14;22.95;;;8.00;;
82387;SDS011;72027;47.420;9.310;2024-01-15T23:02:45;17.33;;;7.40;;
82387;SDS011;72027;47.420;9.310;2024-01-15T23:05:13;17.83;;;7.30;;
82387;SDS011;72027;47.420;9.310;2024-01-15T23:07:42;16.88;;;7.55;;
82387;SDS011;72027;47.420;9.310;2024-01-15T23:10:10;17.00;;;7.97;;
82387;SDS011;72027;47.420;9.310;2024-01-15T23:12:41;16.88;;;7.35;;
82387;SDS011;72027;47.420;9.310;2024-01-15T23:15:09;17.80;;;7.22;;
82387;SDS011;72027;47.420;9.310;2024-01-15T23:17:37;18.27;;;8.20;;
82387;SDS011;72027;47.420;9.310;2024-01-15T23:20:05;14.73;;;6.60;;
82387;SDS011;72027;47.420;9.310;2024-01-15T23:22:35;22.13;;;9.30;;
82387;SDS011;72027;47.420;9.310;2024-01-15T23:25:03;13.73;;;7.28;;
82387;SDS011;72027;47.420;9.310;2024-01-15T23:27:31;20.90;;;8.32;;
82387;SDS011;72027;47.420;9.310;2024-01-15T23:30:00;17.88;;;8.45;;
82387;SDS011;72027;47.420;9.310;2024-01-15T23:32:30;17.52;;;7.55;;
82387;SDS011;72027;47.420;9.310;2024-01-15T23:34:58;18.77;;;7.72;;
82387;SDS011;72027;47.420;9.310;2024-01-15T23:37:26;16.15;;;7.03;;
82387;SDS011;72027;47.420;9.310;2024-01-15T23:39:54;17.10;;;7.82;;
82387;SDS011;72027;47.420;9.310;2024-01-15T23:42:22;19.15;;;7.03;;
82387;SDS011;72027;47.420;9.310;2024-01-15T23:44:49;17.42;;;7.55;;
82387;SDS011;72027;47.420;9.310;2024-01-15T23:47:19;18.45;;;7.60;;
82387;SDS011;72027;47.420;9.310;2024-01-15T23:49:46;18.27;;;7.45;;
82387;SDS011;72027;47.420;9.310;2024-01-15T23:52:14;15.77;;;7.22;;
82387;SDS011;72027;47.420;9.310;2024-01-15T23:54:42;17.33;;;7.60;;
82387;SDS011;72027;47.420;9.310;2024-01-15T23:57:10;16.83;;;7.20;;
82387;SDS011;72027;47.420;9.310;2024-01-15T23:59:38;20.73;;;7.93;;
